Time;durP1;ratioP1;P1;durP2;ratioP2;P2;SDS_P1;SDS_P2;PMS_P1;PMS_P2;Temp;Humidity;BMP_temperature;BMP_pressure;BME280_temperature;BME280_humidity;BME280_pressure;Samples;Min_cycle;Max_cycle;Signal;HPM_P1;HPM_P2
2022/11/30 00:03:09;;;;;;;20.50;14.50;;;21.50;56.60;;;;;;215728;1276;25368;-57
2022/11/30 00:08:14;;;;;;;19.50;14.50;;;21.40;56.50;;;;;;215497;1297;25199;-56
2022/11/30 00:13:18;;;;;;;20.30;14.10;;;21.40;56.80;;;;;;215294;1276;24209;-55
2022/11/30 00:18:21;;;;;;;21.10;14.40;;;21.30;56.60;;;;;;215210;1279;25378;-55
2022/11/30 00:23:26;;;;;;;18.60;14.00;;;21.30;56.70;;;;;;215302;1272;22699;-55
2022/11/30 00:28:34;;;;;;;19.40;14.30;;;21.20;56.60;;;;;;215872;1278;22478;-54
2022/11/30 00:33:39;;;;;;;19.70;13.50;;;21.50;56.70;;;;;;220574;1269;23486;-55
2022/11/30 00:38:43;;;;;;;18.40;12.40;;;21.80;55.70;;;;;;216893;1277;25430;-56
2022/11/30 00:43:47;;;;;;;18.90;13.00;;;22.10;55.10;;;;;;215648;1275;22929;-56
2022/11/30 00:48:50;;;;;;;18.10;12.90;;;22.30;55.10;;;;;;215314;1284;22478;-55
2022/11/30 00:53:54;;;;;;;19.40;12.50;;;22.50;54.90;;;;;;215220;1283;25337;-54
2022/11/30 00:58:58;;;;;;;18.10;12.50;;;22.60;54.00;;;;;;215652;1283;25608;-57
2022/11/30 01:04:02;;;;;;;18.50;13.20;;;22.70;54.00;;;;;;215278;1292;24054;-55
2022/11/30 01:09:06;;;;;;;18.60;12.90;;;22.70;53.60;;;;;;215540;1297;24364;-55
2022/11/30 01:14:10;;;;;;;17.30;12.50;;;22.70;53.40;;;;;;215581;1275;26458;-55
2022/11/30 01:19:13;;;;;;;17.70;12.70;;;22.80;53.30;;;;;;215366;1297;26092;-53
2022/11/30 01:24:17;;;;;;;16.10;12.30;;;22.90;53.20;;;;;;215717;1277;23823;-54
2022/11/30 01:29:21;;;;;;;16.20;12.10;;;22.90;53.00;;;;;;221648;1283;22469;-55
2022/11/30 01:34:25;;;;;;;16.60;12.20;;;23.00;52.80;;;;;;219262;1293;25435;-55
2022/11/30 01:39:29;;;;;;;18.20;12.10;;;23.00;52.70;;;;;;215572;1283;22473;-56
2022/11/30 01:44:49;;;;;;;15.70;11.70;;;23.10;52.60;;;;;;215437;1276;24161;-56
2022/11/30 01:50:00;;;;;;;16.00;12.60;;;23.10;52.70;;;;;;215598;1292;24041;-55
2022/11/30 01:55:12;;;;;;;;;;;23.10;52.70;;;;;;215568;1277;25550;-51
2022/11/30 02:00:17;;;;;;;25.00;11.30;;;23.10;52.70;;;;;;215598;1297;25259;-55
2022/11/30 02:05:22;;;;;;;14.60;11.60;;;23.10;52.90;;;;;;215561;1283;22515;-56
2022/11/30 02:10:30;;;;;;;16.90;12.10;;;23.20;52.80;;;;;;215627;1283;25435;-56
2022/11/30 02:16:09;;;;;;;16.70;12.20;;;23.20;52.80;;;;;;215526;1282;24257;-56
2022/11/30 02:21:28;;;;;;;15.70;11.30;;;23.20;52.80;;;;;;215264;1282;23849;-58
2022/11/30 02:26:47;;;;;;;17.00;12.10;;;23.20;52.60;;;;;;215443;1283;23890;-54
2022/11/30 02:32:04;;;;;;;14.80;11.80;;;23.20;52.70;;;;;;215474;1291;25594;-57
2022/11/30 02:37:11;;;;;;;13.70;11.10;;;23.10;52.90;;;;;;215608;1273;24226;-58
2022/11/30 02:42:15;;;;;;;17.20;12.50;;;22.90;53.20;;;;;;215581;1292;24224;-57
2022/11/30 02:47:45;;;;;;;17.70;11.50;;;22.80;53.60;;;;;;215639;1285;25656;-56
2022/11/30 02:52:50;;;;;;;15.80;11.90;;;22.70;53.70;;;;;;215580;1283;22463;-57
2022/11/30 02:57:53;;;;;;;15.50;11.80;;;22.60;53.90;;;;;;215493;1278;25500;-57
2022/11/30 03:02:57;;;;;;;14.70;11.90;;;22.50;54.30;;;;;;215517;1291;23992;-56
2022/11/30 03:08:01;;;;;;;16.40;12.20;;;22.40;54.10;;;;;;215623;1291;24477;-58
2022/11/30 03:13:04;;;;;;;18.40;11.60;;;22.30;54.50;;;;;;215396;1283;22595;-55
2022/11/30 03:18:08;;;;;;;15.20;11.90;;;22.20;54.40;;;;;;216990;1283;25299;-56
2022/11/30 03:23:12;;;;;;;18.40;11.90;;;22.20;54.90;;;;;;222917;1283;22153;-55
2022/11/30 03:28:15;;;;;;;15.90;11.80;;;22.10;54.90;;;;;;217651;1276;25207;-55
2022/11/30 03:33:19;;;;;;;14.40;11.50;;;22.00;55.00;;;;;;215463;1294;26765;-56
2022/11/30 03:38:23;;;;;;;17.20;12.30;;;22.00;55.00;;;;;;215601;1283;25389;-57
2022/11/30 03:43:27;;;;;;;17.40;12.70;;;21.90;55.10;;;;;;215608;1287;22760;-56
2022/11/30 03:48:31;;;;;;;15.90;12.10;;;21.80;55.00;;;;;;215647;1287;24008;-58
2022/11/30 03:53:35;;;;;;;15.20;12.20;;;21.70;55.10;;;;;;215629;1283;25209;-57
2022/11/30 03:58:39;;;;;;;16.30;12.30;;;21.70;55.50;;;;;;215668;1297;23243;-57
2022/11/30 04:03:43;;;;;;;15.20;12.10;;;21.60;55.50;;;;;;215245;1292;22449;-56
2022/11/30 04:08:47;;;;;;;14.30;11.10;;;21.60;56.00;;;;;;215663;1276;22478;-56
2022/11/30 04:13:50;;;;;;;15.60;12.20;;;21.50;55.60;;;;;;215621;1293;25436;-56
2022/11/30 04:18:54;;;;;;;16.90;11.80;;;21.40;55.70;;;;;;215685;1297;26105;-56
2022/11/30 04:23:58;;;;;;;14.70;11.70;;;21.40;55.60;;;;;;215789;1276;24192;-55
2022/11/30 04:29:02;;;;;;;17.30;12.00;;;21.30;55.90;;;;;;215603;1283;24147;-57
2022/11/30 04:34:07;;;;;;;14.90;11.20;;;21.30;55.90;;;;;;215253;1285;22712;-57
2022/11/30 04:39:10;;;;;;;15.10;11.50;;;21.60;56.50;;;;;;215639;1283;25307;-57
2022/11/30 04:44:14;;;;;;;15.40;11.10;;;21.90;55.20;;;;;;215402;1291;26144;-57
2022/11/30 04:49:18;;;;;;;15.10;10.90;;;22.10;54.60;;;;;;215720;1281;25355;-56
2022/11/30 04:54:22;;;;;;;17.10;12.00;;;22.30;54.30;;;;;;215299;1298;24016;-55
2022/11/30 04:59:26;;;;;;;16.00;11.90;;;22.50;53.50;;;;;;215321;1297;24037;-57
2022/11/30 05:04:33;;;;;;;15.70;11.60;;;22.60;53.40;;;;;;215223;1277;24247;-56
2022/11/30 05:09:38;;;;;;;15.10;11.50;;;22.60;53.20;;;;;;215579;1282;25362;-58
2022/11/30 05:14:41;;;;;;;13.50;11.20;;;22.70;53.10;;;;;;215303;1289;25447;-57
2022/11/30 05:19:45;;;;;;;15.70;12.00;;;22.80;52.80;;;;;;215523;1286;23869;-56
2022/11/30 05:24:49;;;;;;;14.40;11.40;;;22.80;53.30;;;;;;215587;1284;22469;-55
2022/11/30 05:29:52;;;;;;;14.40;11.50;;;22.80;52.60;;;;;;215435;1283;22465;-57
2022/11/30 05:34:56;;;;;;;14.20;11.60;;;22.90;52.90;;;;;;215530;1284;25394;-57
2022/11/30 05:40:01;;;;;;;17.50;11.80;;;22.90;52.50;;;;;;215348;1297;24446;-56
2022/11/30 05:45:08;;;;;;;15.20;11.30;;;23.00;52.50;;;;;;215295;1289;25282;-56
2022/11/30 05:50:12;;;;;;;14.60;10.70;;;23.00;52.30;;;;;;215567;1294;25350;-56
2022/11/30 05:55:16;;;;;;;12.50;9.70;;;23.00;52.30;;;;;;215624;1283;22569;-56
2022/11/30 06:00:21;;;;;;;14.00;11.00;;;23.00;52.50;;;;;;215610;1283;23860;-56
2022/11/30 06:05:25;;;;;;;13.80;10.60;;;23.00;52.30;;;;;;215768;1286;22829;-57
2022/11/30 06:10:29;;;;;;;14.00;10.80;;;23.10;52.10;;;;;;215573;1280;22506;-54
2022/11/30 06:15:33;;;;;;;13.90;11.10;;;23.10;52.00;;;;;;222058;1281;23840;-56
2022/11/30 06:20:37;;;;;;;14.60;11.10;;;23.20;52.10;;;;;;215792;1285;23867;-56
2022/11/30 06:25:40;;;;;;;14.70;10.40;;;23.20;51.70;;;;;;222494;1283;24243;-57
2022/11/30 06:30:44;;;;;;;13.60;11.20;;;23.30;51.80;;;;;;217217;1297;24008;-56
2022/11/30 06:35:48;;;;;;;14.10;11.20;;;23.30;51.70;;;;;;215445;1303;25382;-56
2022/11/30 06:40:52;;;;;;;13.50;10.60;;;23.30;51.70;;;;;;215343;1285;23080;-55
2022/11/30 06:45:56;;;;;;;13.30;10.80;;;23.20;52.00;;;;;;215281;1288;24273;-57
2022/11/30 06:51:00;;;;;;;14.60;11.30;;;23.00;52.30;;;;;;215495;1289;23986;-55
2022/11/30 06:56:05;;;;;;;14.00;10.40;;;22.90;52.70;;;;;;215628;1279;24275;-58
2022/11/30 07:01:14;;;;;;;16.40;10.90;;;22.70;53.20;;;;;;215556;1293;24268;-55
2022/11/30 07:06:18;;;;;;;18.00;11.10;;;22.70;53.30;;;;;;215602;1285;22536;-56
2022/11/30 07:11:22;;;;;;;17.70;11.40;;;22.60;54.30;;;;;;215545;1297;22540;-55
2022/11/30 07:16:25;;;;;;;19.70;10.40;;;22.60;54.40;;;;;;215602;1291;22701;-55
2022/11/30 07:21:29;;;;;;;15.40;10.50;;;22.50;54.70;;;;;;215714;1276;25293;-55
2022/11/30 07:26:33;;;;;;;19.10;11.00;;;22.50;55.00;;;;;;215500;1283;25288;-56
2022/11/30 07:31:37;;;;;;;13.60;10.30;;;22.40;55.30;;;;;;215530;1276;26540;-57
2022/11/30 07:36:41;;;;;;;15.40;11.30;;;22.40;55.50;;;;;;215599;1276;24257;-56
2022/11/30 07:41:45;;;;;;;18.90;11.00;;;22.30;55.50;;;;;;215327;1279;23993;-55
2022/11/30 07:46:52;;;;;;;18.60;11.50;;;22.30;55.40;;;;;;215566;1286;23890;-54
2022/11/30 07:51:56;;;;;;;17.20;11.00;;;22.20;55.80;;;;;;215367;1293;22585;-55
2022/11/30 07:57:00;;;;;;;23.90;10.80;;;22.20;56.10;;;;;;215245;1298;23822;-54
2022/11/30 08:02:03;;;;;;;23.60;10.80;;;22.10;56.30;;;;;;215764;1290;24253;-56
2022/11/30 08:07:10;;;;;;;19.50;11.40;;;21.90;56.60;;;;;;215526;1272;22456;-56
2022/11/30 08:12:14;;;;;;;20.90;11.50;;;21.90;56.40;;;;;;215325;1288;22500;-54
2022/11/30 08:17:17;;;;;;;20.00;10.90;;;21.80;56.10;;;;;;215524;1276;24006;-55
2022/11/30 08:22:21;;;;;;;16.90;10.60;;;21.80;56.20;;;;;;215602;1287;25302;-55
2022/11/30 08:27:25;;;;;;;20.90;10.70;;;21.70;56.00;;;;;;215238;1277;23984;-56
2022/11/30 08:32:30;;;;;;;14.90;10.70;;;21.60;56.40;;;;;;215626;1277;24262;-57
2022/11/30 08:37:42;;;;;;;20.70;12.80;;;21.60;56.10;;;;;;215609;1283;23842;-56
2022/11/30 08:42:46;;;;;;;22.20;10.90;;;21.50;55.60;;;;;;215468;1276;23882;-56
2022/11/30 08:47:54;;;;;;;16.70;11.80;;;21.40;56.00;;;;;;215546;1277;26585;-57
2022/11/30 08:52:58;;;;;;;17.30;12.10;;;21.40;56.20;;;;;;215605;1282;25309;-55
2022/11/30 08:58:08;;;;;;;17.20;12.20;;;21.30;56.50;;;;;;215555;1269;22464;-56
2022/11/30 09:03:17;;;;;;;15.80;11.40;;;21.30;56.50;;;;;;215591;1282;22462;-55
2022/11/30 09:08:40;;;;;;;15.40;11.60;;;21.20;56.70;;;;;;215512;1273;22469;-56
2022/11/30 09:13:53;;;;;;;15.90;10.70;;;21.10;57.00;;;;;;215418;1279;23704;-57
2022/11/30 09:18:57;;;;;;;16.30;11.10;;;21.30;56.30;;;;;;215577;1284;26064;-57
2022/11/30 09:24:05;;;;;;;14.30;9.80;;;21.70;55.40;;;;;;215537;1276;22601;-56
2022/11/30 09:29:09;;;;;;;14.70;9.70;;;22.00;54.70;;;;;;215724;1288;24797;-55
2022/11/30 09:34:13;;;;;;;15.40;9.90;;;22.20;54.10;;;;;;215528;1293;22453;-57
2022/11/30 09:39:19;;;;;;;13.00;9.70;;;22.30;53.70;;;;;;215575;1276;24281;-56
2022/11/30 09:44:49;;;;;;;16.40;9.90;;;22.40;53.70;;;;;;215584;1273;23063;-56
2022/11/30 09:49:54;;;;;;;14.20;9.70;;;22.40;53.20;;;;;;215525;1282;24174;-56
2022/11/30 09:55:05;;;;;;;14.10;9.90;;;22.40;53.30;;;;;;215700;1276;22702;-58
2022/11/30 10:00:16;;;;;;;15.50;10.80;;;22.50;53.10;;;;;;215503;1283;24806;-56
2022/11/30 10:05:44;;;;;;;13.50;10.10;;;22.50;53.10;;;;;;215602;1283;24509;-56
2022/11/30 10:10:58;;;;;;;15.30;9.60;;;22.60;53.00;;;;;;215327;1282;22952;-57
2022/11/30 10:16:05;;;;;;;15.80;10.60;;;22.60;52.80;;;;;;215668;1283;24185;-56
2022/11/30 10:21:40;;;;;;;14.70;10.50;;;22.60;52.80;;;;;;215658;1283;22441;-60
2022/11/30 10:26:55;;;;;;;13.70;10.10;;;22.70;52.70;;;;;;215369;1297;24241;-56
2022/11/30 10:32:01;;;;;;;12.80;9.10;;;22.70;52.60;;;;;;215500;1293;22533;-57
2022/11/30 10:37:13;;;;;;;14.80;9.30;;;22.70;52.50;;;;;;215632;1282;22472;-54
2022/11/30 10:42:25;;;;;;;13.20;9.30;;;22.90;53.20;;;;;;215533;1297;24991;-58
2022/11/30 10:47:35;;;;;;;14.30;10.30;;;23.00;52.80;;;;;;215710;1275;22625;-58
2022/11/30 10:52:52;;;;;;;13.60;9.30;;;23.00;53.70;;;;;;215603;1274;23869;-59
2022/11/30 10:58:19;;;;;;;14.40;9.80;;;23.00;54.10;;;;;;215583;1276;22460;-57
2022/11/30 11:03:28;;;;;;;13.70;8.60;;;23.00;54.80;;;;;;215502;1283;22477;-56
2022/11/30 11:08:32;;;;;;;12.90;8.70;;;22.90;55.70;;;;;;215638;1276;24474;-59
2022/11/30 11:13:41;;;;;;;15.30;9.60;;;22.90;55.30;;;;;;215672;1293;26651;-57
2022/11/30 11:18:56;;;;;;;11.30;8.70;;;22.90;55.70;;;;;;215316;1279;25528;-54
2022/11/30 11:24:08;;;;;;;13.10;9.70;;;22.90;56.60;;;;;;215665;1275;26787;-57
2022/11/30 11:29:30;;;;;;;12.50;9.00;;;22.80;57.30;;;;;;215499;1277;24253;-56
2022/11/30 11:34:36;;;;;;;13.70;9.90;;;22.60;57.80;;;;;;215527;1277;25597;-58
2022/11/30 11:39:39;;;;;;;14.10;10.50;;;22.50;57.80;;;;;;215319;1277;24281;-57
2022/11/30 11:44:49;;;;;;;14.20;9.50;;;22.40;56.60;;;;;;215249;1283;23762;-57
2022/11/30 11:50:11;;;;;;;14.50;10.30;;;22.30;57.90;;;;;;215636;1281;22581;-57
2022/11/30 11:55:17;;;;;;;13.40;10.00;;;22.20;58.90;;;;;;215533;1283;23886;-57
2022/11/30 12:00:24;;;;;;;14.90;10.90;;;22.10;59.10;;;;;;215602;1288;22462;-57
2022/11/30 12:05:33;;;;;;;12.60;9.90;;;22.00;59.30;;;;;;215278;1283;22497;-58
2022/11/30 12:10:57;;;;;;;12.70;9.60;;;21.90;59.60;;;;;;215561;1281;22464;-58
2022/11/30 12:16:19;;;;;;;14.30;9.90;;;21.90;60.30;;;;;;215616;1281;22458;-57
2022/11/30 12:21:44;;;;;;;14.00;10.00;;;21.80;60.50;;;;;;215547;1283;22464;-57
2022/11/30 12:26:54;;;;;;;14.20;10.20;;;21.70;60.50;;;;;;215560;1283;25454;-58
2022/11/30 12:32:16;;;;;;;12.80;9.70;;;21.70;60.60;;;;;;215141;1282;25548;-58
2022/11/30 12:37:54;;;;;;;14.40;9.80;;;21.60;61.20;;;;;;215619;1282;22619;-58
2022/11/30 12:43:11;;;;;;;13.40;9.90;;;21.50;61.10;;;;;;215483;1283;25322;-58
2022/11/30 12:48:51;;;;;;;13.30;10.40;;;21.50;61.40;;;;;;215901;1282;22515;-56
2022/11/30 12:54:17;;;;;;;15.90;10.30;;;21.40;61.50;;;;;;215605;1283;22698;-58
2022/11/30 13:00:05;;;;;;;12.70;9.70;;;21.40;61.50;;;;;;215506;1283;24248;-58
2022/11/30 13:05:20;;;;;;;12.60;10.00;;;21.30;61.30;;;;;;215682;1281;22458;-57
2022/11/30 13:10:26;;;;;;;14.30;10.50;;;21.20;62.30;;;;;;215549;1283;25380;-57
2022/11/30 13:15:34;;;;;;;13.60;9.90;;;21.20;61.60;;;;;;215638;1279;22706;-58
2022/11/30 13:20:53;;;;;;;12.10;9.30;;;21.20;62.20;;;;;;215560;1277;23395;-56
2022/11/30 13:26:03;;;;;;;13.90;9.70;;;21.40;61.80;;;;;;215253;1283;22571;-58
2022/11/30 13:31:37;;;;;;;11.40;8.20;;;21.80;61.30;;;;;;215521;1275;22573;-57
2022/11/30 13:36:43;;;;;;;11.10;8.40;;;22.00;60.60;;;;;;215575;1282;25562;-57
2022/11/30 13:42:12;;;;;;;13.00;8.90;;;22.20;60.40;;;;;;215495;1288;22494;-55
2022/11/30 13:47:48;;;;;;;12.50;9.30;;;22.30;60.50;;;;;;215557;1276;25297;-58
2022/11/30 13:53:17;;;;;;;13.00;8.70;;;22.30;59.60;;;;;;215371;1297;22933;-57
2022/11/30 13:58:23;;;;;;;12.20;8.50;;;22.30;59.90;;;;;;215475;1276;24253;-56
2022/11/30 14:03:37;;;;;;;14.10;9.80;;;22.30;59.80;;;;;;215662;1291;26167;-58
2022/11/30 14:08:45;;;;;;;12.60;9.70;;;22.30;60.00;;;;;;215189;1276;22676;-58
2022/11/30 14:13:50;;;;;;;12.80;9.50;;;22.40;60.20;;;;;;215487;1275;24027;-57
2022/11/30 14:18:56;;;;;;;14.50;10.20;;;22.40;59.70;;;;;;215536;1269;23295;-57
2022/11/30 14:24:34;;;;;;;12.60;9.60;;;22.40;59.70;;;;;;215522;1272;22559;-58
2022/11/30 14:29:39;;;;;;;13.20;9.30;;;22.50;59.60;;;;;;214717;1272;25356;-58
2022/11/30 14:34:52;;;;;;;13.90;9.00;;;22.50;59.20;;;;;;214669;1279;22864;-58
2022/11/30 14:40:21;;;;;;;11.80;8.20;;;22.70;59.00;;;;;;214730;1303;25361;-57
2022/11/30 14:45:32;;;;;;;12.20;8.60;;;22.80;58.80;;;;;;214662;1289;25310;-58
2022/11/30 14:50:42;;;;;;;14.20;8.90;;;22.80;59.00;;;;;;214609;1272;24287;-58
2022/11/30 14:56:29;;;;;;;18.10;10.00;;;22.80;58.80;;;;;;214484;1272;25227;-56
2022/11/30 15:01:34;;;;;;;15.10;9.60;;;22.80;58.50;;;;;;215762;1275;24243;-58
2022/11/30 15:06:39;;;;;;;13.90;9.20;;;22.90;58.70;;;;;;215581;1269;22503;-58
2022/11/30 15:11:45;;;;;;;13.90;9.00;;;22.90;58.70;;;;;;215566;1283;22514;-58
2022/11/30 15:16:58;;;;;;;17.10;9.50;;;23.00;58.60;;;;;;215720;1297;22505;-58
2022/11/30 15:22:21;;;;;;;13.20;9.10;;;23.00;58.50;;;;;;215523;1283;22504;-58
2022/11/30 15:27:30;;;;;;;12.80;8.70;;;23.00;58.10;;;;;;215229;1283;24307;-58
2022/11/30 15:32:34;;;;;;;12.30;8.80;;;23.00;58.00;;;;;;215601;1291;22611;-57
2022/11/30 15:37:42;;;;;;;15.70;10.30;;;23.00;57.90;;;;;;215539;1269;24516;-58
2022/11/30 15:42:49;;;;;;;13.90;9.70;;;22.90;57.90;;;;;;215197;1293;22487;-57
2022/11/30 15:47:56;;;;;;;15.90;9.70;;;22.70;58.20;;;;;;215522;1283;25474;-59
2022/11/30 15:53:22;;;;;;;13.90;9.70;;;22.60;58.60;;;;;;215545;1276;23759;-58
2022/11/30 15:58:35;;;;;;;13.80;9.80;;;22.50;58.50;;;;;;215560;1276;22475;-59
2022/11/30 16:04:04;;;;;;;18.40;9.90;;;22.40;58.40;;;;;;215588;1277;24339;-58
2022/11/30 16:09:32;;;;;;;17.50;9.40;;;22.30;58.60;;;;;;215564;1291;25442;-58
2022/11/30 16:14:44;;;;;;;13.10;9.20;;;22.20;58.80;;;;;;215412;1277;24243;-59
2022/11/30 16:20:02;;;;;;;14.40;9.90;;;22.10;59.30;;;;;;215556;1283;24014;-58
2022/11/30 16:25:40;;;;;;;13.60;10.40;;;22.00;59.30;;;;;;215254;1278;22509;-59
2022/11/30 16:30:50;;;;;;;13.90;9.70;;;21.90;59.10;;;;;;215617;1276;22562;-58
2022/11/30 16:36:08;;;;;;;13.30;10.00;;;21.90;59.30;;;;;;215511;1284;24255;-58
2022/11/30 16:41:24;;;;;;;14.30;10.40;;;21.80;59.20;;;;;;215488;1292;22510;-59
2022/11/30 16:46:35;;;;;;;15.90;10.80;;;21.70;59.90;;;;;;215413;1278;24244;-57
2022/11/30 16:51:46;;;;;;;13.10;9.30;;;21.70;59.70;;;;;;215513;1283;25607;-58
2022/11/30 16:56:51;;;;;;;22.80;10.20;;;21.60;59.80;;;;;;215473;1279;22661;-57
2022/11/30 17:02:15;;;;;;;17.10;10.20;;;21.60;59.80;;;;;;215477;1275;22938;-58
2022/11/30 17:07:26;;;;;;;18.50;10.20;;;21.50;59.80;;;;;;215306;1275;25273;-57
2022/11/30 17:12:37;;;;;;;19.40;10.60;;;21.40;60.10;;;;;;215205;1276;22703;-57
2022/11/30 17:17:58;;;;;;;18.10;11.50;;;21.30;60.50;;;;;;215406;1269;24274;-58
2022/11/30 17:23:14;;;;;;;17.10;10.60;;;21.30;60.30;;;;;;215371;1276;22714;-57
2022/11/30 17:28:22;;;;;;;19.80;10.60;;;21.30;59.40;;;;;;215310;1281;22925;-57
2022/11/30 17:33:34;;;;;;;22.60;11.20;;;21.60;59.50;;;;;;215476;1275;22666;-57
2022/11/30 17:38:42;;;;;;;19.40;10.20;;;21.80;59.30;;;;;;215390;1276;22457;-55
2022/11/30 17:44:17;;;;;;;14.30;10.40;;;22.00;59.20;;;;;;215310;1275;25372;-57
2022/11/30 17:49:41;;;;;;;;;;;22.20;58.40;;;;;;215468;1275;24288;-56
2022/11/30 17:54:48;;;;;;;16.00;10.50;;;22.40;57.90;;;;;;215333;1283;24166;-57
2022/11/30 18:00:00;;;;;;;16.10;11.00;;;22.40;57.20;;;;;;215417;1275;24281;-56
2022/11/30 18:06:01;;;;;;;17.80;11.90;;;22.40;57.00;;;;;;214945;1286;22452;-56
2022/11/30 18:11:18;;;;;;;21.00;12.10;;;22.50;56.50;;;;;;215323;1283;22466;-56
2022/11/30 18:16:43;;;;;;;19.90;12.60;;;22.60;55.90;;;;;;215361;1275;24253;-57
2022/11/30 18:21:54;;;;;;;17.90;11.60;;;22.60;55.20;;;;;;215537;1291;25530;-57
2022/11/30 18:26:57;;;;;;;16.70;11.90;;;22.70;54.80;;;;;;215432;1276;22526;-60
2022/11/30 18:32:02;;;;;;;18.70;12.20;;;22.80;54.50;;;;;;215647;1281;22595;-58
2022/11/30 18:37:11;;;;;;;17.40;11.40;;;22.80;54.40;;;;;;215146;1269;25602;-56
2022/11/30 18:42:15;;;;;;;21.80;11.70;;;23.00;54.90;;;;;;215331;1283;22462;-57
2022/11/30 18:47:21;;;;;;;16.10;10.90;;;23.10;54.70;;;;;;215427;1269;23675;-57
2022/11/30 18:52:28;;;;;;;18.10;11.50;;;23.00;54.50;;;;;;215335;1292;25462;-57
2022/11/30 18:57:35;;;;;;;16.10;11.30;;;23.00;55.30;;;;;;215521;1276;25363;-57
2022/11/30 19:02:45;;;;;;;16.40;12.50;;;22.90;55.40;;;;;;216208;1281;24247;-57
2022/11/30 19:07:52;;;;;;;17.60;11.60;;;22.80;55.40;;;;;;215804;1279;24237;-58
2022/11/30 19:12:56;;;;;;;21.20;12.60;;;22.70;55.70;;;;;;215355;1276;23958;-58
2022/11/30 19:18:23;;;;;;;20.80;12.00;;;22.70;55.80;;;;;;215241;1277;22699;-61
2022/11/30 19:23:45;;;;;;;18.30;11.20;;;22.50;56.20;;;;;;215152;1275;26947;-59
2022/11/30 19:29:11;;;;;;;16.40;11.50;;;22.50;55.80;;;;;;215026;1276;24231;-58
2022/11/30 19:34:22;;;;;;;18.50;11.30;;;22.30;55.90;;;;;;215189;1283;24228;-59
2022/11/30 19:39:34;;;;;;;16.50;11.40;;;22.20;55.90;;;;;;215070;1279;22633;-57
2022/11/30 19:44:39;;;;;;;13.50;10.40;;;22.10;56.10;;;;;;215492;1276;24278;-58
2022/11/30 19:49:44;;;;;;;14.60;11.00;;;22.10;56.40;;;;;;217072;1278;25447;-58
2022/11/30 19:54:48;;;;;;;19.30;11.40;;;22.00;56.40;;;;;;215278;1276;22474;-58
2022/11/30 19:59:52;;;;;;;19.70;11.50;;;22.00;56.50;;;;;;215182;1277;22452;-57
2022/11/30 20:04:56;;;;;;;21.20;10.70;;;22.00;56.40;;;;;;215063;1277;22605;-57
2022/11/30 20:10:00;;;;;;;19.10;11.60;;;21.90;57.30;;;;;;215173;1292;27717;-60
2022/11/30 20:15:07;;;;;;;15.90;11.80;;;21.80;57.20;;;;;;215258;1287;22516;-58
2022/11/30 20:20:12;;;;;;;19.80;12.00;;;21.80;57.20;;;;;;215205;1277;23833;-59
2022/11/30 20:25:16;;;;;;;21.00;12.30;;;21.80;57.10;;;;;;215253;1275;22526;-58
2022/11/30 20:30:20;;;;;;;17.80;12.10;;;21.70;57.10;;;;;;215407;1275;24272;-57
2022/11/30 20:35:24;;;;;;;18.30;12.00;;;21.70;56.70;;;;;;215193;1276;25158;-56
2022/11/30 20:40:28;;;;;;;16.90;11.00;;;21.60;56.50;;;;;;215178;1275;22575;-58
2022/11/30 20:45:33;;;;;;;18.60;12.00;;;21.60;56.30;;;;;;215284;1283;22694;-58
2022/11/30 20:50:47;;;;;;;20.40;12.60;;;21.60;56.30;;;;;;215179;1292;24281;-57
2022/11/30 20:56:18;;;;;;;18.50;11.60;;;21.60;56.10;;;;;;214984;1286;22452;-56
2022/11/30 21:01:29;;;;;;;21.20;13.30;;;21.50;56.00;;;;;;215083;1279;24253;-56
2022/11/30 21:06:45;;;;;;;19.50;13.10;;;21.50;55.90;;;;;;215302;1282;22585;-57
2022/11/30 21:11:56;;;;;;;20.40;12.80;;;21.40;55.60;;;;;;215084;1276;24224;-52
2022/11/30 21:17:14;;;;;;;19.50;12.80;;;21.40;56.10;;;;;;215430;1277;22460;-53
2022/11/30 21:22:38;;;;;;;18.10;12.20;;;21.30;56.40;;;;;;214801;1277;22463;-54
2022/11/30 21:28:06;;;;;;;18.40;12.80;;;21.20;56.80;;;;;;215150;1286;25212;-53
2022/11/30 21:33:49;;;;;;;19.70;13.00;;;21.20;56.80;;;;;;215457;1275;22581;-53
2022/11/30 21:39:06;;;;;;;23.20;12.40;;;21.20;57.30;;;;;;215396;1283;22478;-54
2022/11/30 21:44:13;;;;;;;17.20;11.90;;;21.20;57.40;;;;;;215210;1287;22455;-54
2022/11/30 21:49:28;;;;;;;21.40;12.50;;;21.10;57.50;;;;;;215436;1276;24274;-54
2022/11/30 21:54:38;;;;;;;17.40;11.80;;;21.50;56.80;;;;;;215366;1273;22874;-53
2022/11/30 21:59:46;;;;;;;17.60;11.50;;;21.90;56.00;;;;;;215181;1279;22465;-53
2022/11/30 22:05:02;;;;;;;17.40;11.80;;;22.00;55.40;;;;;;215659;1275;22503;-53
2022/11/30 22:10:23;;;;;;;17.80;12.20;;;22.00;55.30;;;;;;215428;1275;22477;-53
2022/11/30 22:15:30;;;;;;;17.30;11.30;;;22.00;55.60;;;;;;215538;1283;22496;-53
2022/11/30 22:20:52;;;;;;;18.00;12.60;;;22.20;55.10;;;;;;215216;1277;23601;-54
2022/11/30 22:26:42;;;;;;;16.60;12.00;;;22.30;54.50;;;;;;211472;1272;5438673;-54
2022/11/30 22:32:08;;;;;;;15.90;11.00;;;22.40;54.60;;;;;;215553;1277;22526;-52
2022/11/30 22:37:19;;;;;;;27.40;12.00;;;22.50;54.30;;;;;;215569;1292;24011;-54
2022/11/30 22:42:33;;;;;;;;;;;22.70;57.50;;;;;;215585;1283;25238;-54
2022/11/30 22:47:40;;;;;;;20.60;11.80;;;22.80;56.40;;;;;;215578;1269;22533;-54
2022/11/30 22:53:02;;;;;;;20.30;12.50;;;22.80;55.80;;;;;;215591;1272;22829;-54
2022/11/30 22:58:16;;;;;;;18.40;12.20;;;22.90;55.60;;;;;;215569;1283;22461;-54
2022/11/30 23:03:30;;;;;;;17.50;11.20;;;22.90;55.90;;;;;;215481;1277;22487;-54
2022/11/30 23:08:43;;;;;;;18.70;12.30;;;23.00;55.70;;;;;;215418;1283;22495;-53
2022/11/30 23:13:56;;;;;;;14.90;12.10;;;23.10;55.90;;;;;;215415;1275;25436;-53
2022/11/30 23:19:01;;;;;;;13.60;11.60;;;23.20;55.40;;;;;;215420;1277;23047;-54
2022/11/30 23:24:12;;;;;;;13.90;10.90;;;23.20;55.70;;;;;;215319;1279;23708;-53
2022/11/30 23:29:16;;;;;;;16.10;11.60;;;23.00;55.80;;;;;;215486;1282;22741;-54
2022/11/30 23:34:24;;;;;;;15.00;11.50;;;22.90;56.30;;;;;;215506;1283;24674;-53
2022/11/30 23:39:35;;;;;;;15.00;11.30;;;22.70;56.80;;;;;;215440;1293;22753;-52
2022/11/30 23:44:47;;;;;;;14.70;11.50;;;22.70;57.40;;;;;;215248;1280;23727;-54
2022/11/30 23:49:57;;;;;;;19.40;12.60;;;22.60;57.60;;;;;;215456;1282;24241;-54
2022/11/30 23:55:10;;;;;;;14.50;12.10;;;22.60;57.90;;;;;;215361;1283;25589;-51
